Time,TemperatureF,DewpointF,PressureIn,WindDirection,WindDirectionDegrees,WindSpeedMPH,WindSpeedGustMPH,Humidity,HourlyPrecipIn,Conditions,Clouds,dailyrainin,SoftwareType,DateUTC
2013-07-22 00:12:00,57.5,54.0,29.55,South,191,3.0,8.0,89,0.00,,,0.00,weatherlink.com 1.10,2013-07-22 07:12:00,
2013-07-22 00:27:00,57.2,55.0,29.54,SW,215,3.0,8.0,91,0.00,,,0.00,weatherlink.com 1.10,2013-07-22 07:27:00,
2013-07-22 00:42:00,57.1,54.0,29.54,SW,220,4.0,7.0,90,0.00,,,0.00,weatherlink.com 1.10,2013-07-22 07:42:00,
2013-07-22 00:57:00,57.1,54.0,29.54,SSW,207,2.0,8.0,89,0.00,,,0.00,weatherlink.com 1.10,2013-07-22 07:57:00,
2013-07-22 01:12:00,56.6,54.0,29.54,WSW,253,4.0,6.0,92,0.00,,,0.00,weatherlink.com 1.10,2013-07-22 08:12:00,
2013-07-22 01:27:00,56.4,54.0,29.54,SW,229,1.0,4.0,90,0.00,,,0.00,weatherlink.com 1.10,2013-07-22 08:27:00,
2013-07-22 01:42:00,56.1,54.0,29.53,West,263,3.0,5.0,93,0.00,,,0.00,weatherlink.com 1.10,2013-07-22 08:42:00,
2013-07-22 01:57:00,55.8,54.0,29.53,WSW,250,3.0,5.0,93,0.00,,,0.00,weatherlink.com 1.10,2013-07-22 08:57:00,
2013-07-22 02:12:00,55.9,54.0,29.52,SW,221,2.0,2.0,93,0.00,,,0.00,weatherlink.com 1.10,2013-07-22 09:12:00,
2013-07-22 02:27:00,56.3,54.0,29.52,SSW,194,3.0,4.0,92,0.00,,,0.00,weatherlink.com 1.10,2013-07-22 09:27:00,
2013-07-22 02:42:00,56.6,54.0,29.52,South,172,4.0,5.0,91,0.00,,,0.00,weatherlink.com 1.10,2013-07-22 09:42:00,
2013-07-22 02:57:00,56.5,53.0,29.52,South,186,5.0,5.0,89,0.00,,,0.00,weatherlink.com 1.10,2013-07-22 09:57:00,
2013-07-22 03:12:00,56.7,53.0,29.51,SSW,194,3.0,5.0,88,0.00,,,0.00,weatherlink.com 1.10,2013-07-22 10:12:00,
2013-07-22 03:27:00,56.3,54.0,29.51,SW,225,2.0,3.0,91,0.00,,,0.00,weatherlink.com 1.10,2013-07-22 10:27:00,
2013-07-22 03:42:00,56.0,54.0,29.51,SW,235,1.0,3.0,93,0.00,,,0.00,weatherlink.com 1.10,2013-07-22 10:42:00,
2013-07-22 03:57:00,56.1,53.0,29.52,SSE,152,3.0,4.0,90,0.00,,,0.00,weatherlink.com 1.10,2013-07-22 10:57:00,
2013-07-22 04:12:00,56.5,52.0,29.52,SW,224,3.0,3.0,86,0.00,,,0.00,weatherlink.com 1.10,2013-07-22 11:12:00,
2013-07-22 04:27:00,55.7,53.0,29.52,SSW,212,3.0,4.0,90,0.00,,,0.00,weatherlink.com 1.10,2013-07-22 11:27:00,
2013-07-22 04:42:00,55.6,53.0,29.52,South,187,2.0,3.0,91,0.00,,,0.00,weatherlink.com 1.10,2013-07-22 11:42:00,
2013-07-22 04:57:00,56.2,53.0,29.53,SW,224,2.0,3.0,88,0.00,,,0.00,weatherlink.com 1.10,2013-07-22 11:57:00,
2013-07-22 05:12:00,55.9,52.0,29.53,SW,226,2.0,5.0,88,0.00,,,0.00,weatherlink.com 1.10,2013-07-22 12:12:00,
2013-07-22 05:27:00,56.1,52.0,29.54,SSE,158,1.0,5.0,86,0.00,,,0.00,weatherlink.com 1.10,2013-07-22 12:27:00,
2013-07-22 05:42:00,56.3,52.0,29.54,SW,222,3.0,3.0,85,0.00,,,0.00,weatherlink.com 1.10,2013-07-22 12:42:00,
2013-07-22 05:57:00,56.3,52.0,29.54,SSW,205,1.0,3.0,85,0.00,,,0.00,weatherlink.com 1.10,2013-07-22 12:57:00,
2013-07-22 06:12:00,56.9,53.0,29.54,SSW,198,2.0,2.0,85,0.00,,,0.00,weatherlink.com 1.10,2013-07-22 13:12:00,
2013-07-22 06:27:00,58.4,53.0,29.55,SW,235,0.0,2.0,82,0.00,,,0.00,weatherlink.com 1.10,2013-07-22 13:27:00,
2013-07-22 06:42:00,58.4,53.0,29.55,ESE,110,1.0,2.0,82,0.00,,,0.00,weatherlink.com 1.10,2013-07-22 13:42:00,
2013-07-22 06:57:00,59.0,55.0,29.56,ENE,60,0.0,2.0,85,0.00,,,0.00,weatherlink.com 1.10,2013-07-22 13:57:00,
2013-07-22 07:12:00,59.8,55.0,29.56,SSE,167,0.0,2.0,83,0.00,,,0.00,weatherlink.com 1.10,2013-07-22 14:12:00,
2013-07-22 07:27:00,60.9,55.0,29.56,SW,226,0.0,1.0,81,0.00,,,0.00,weatherlink.com 1.10,2013-07-22 14:27:00,
2013-07-22 07:42:00,60.3,54.0,29.57,West,269,0.0,2.0,81,0.00,,,0.00,weatherlink.com 1.10,2013-07-22 14:42:00,
2013-07-22 07:57:00,60.0,55.0,29.57,SW,231,1.0,2.0,83,0.00,,,0.00,weatherlink.com 1.10,2013-07-22 14:57:00,
2013-07-22 08:12:00,60.4,56.0,29.58,WSW,246,0.0,2.0,85,0.00,,,0.00,weatherlink.com 1.10,2013-07-22 15:12:00,
2013-07-22 08:27:00,59.3,56.0,29.58,West,260,3.0,3.0,87,0.00,,,0.00,weatherlink.com 1.10,2013-07-22 15:27:00,
2013-07-22 08:42:00,58.4,55.0,29.58,SW,226,1.0,3.0,89,0.00,,,0.00,weatherlink.com 1.10,2013-07-22 15:42:00,
2013-07-22 08:57:00,59.8,56.0,29.58,West,273,2.0,3.0,88,0.00,,,0.00,weatherlink.com 1.10,2013-07-22 15:57:00,
2013-07-22 09:12:00,60.9,56.0,29.58,West,280,2.0,4.0,85,0.00,,,0.00,weatherlink.com 1.10,2013-07-22 16:12:00,
2013-07-22 09:27:00,60.4,57.0,29.58,WSW,240,0.0,4.0,87,0.00,,,0.00,weatherlink.com 1.10,2013-07-22 16:27:00,
2013-07-22 09:42:00,60.0,57.0,29.58,NW,321,1.0,4.0,88,0.00,,,0.00,weatherlink.com 1.10,2013-07-22 16:42:00,
2013-07-22 09:57:00,59.3,56.0,29.58,WSW,253,1.0,5.0,90,0.09,,,0.09,weatherlink.com 1.10,2013-07-22 16:57:00,
2013-07-22 10:12:00,58.0,57.0,29.58,West,273,3.0,6.0,95,0.21,,,0.21,weatherlink.com 1.10,2013-07-22 17:12:00,
2013-07-22 10:27:00,57.2,56.0,29.59,SW,225,2.0,5.0,96,0.29,,,0.29,weatherlink.com 1.10,2013-07-22 17:27:00,
2013-07-22 10:42:00,57.1,56.0,29.59,SW,226,2.0,5.0,97,0.42,,,0.42,weatherlink.com 1.10,2013-07-22 17:42:00,
2013-07-22 10:57:00,58.5,58.0,29.59,NW,319,2.0,4.0,98,0.36,,,0.45,weatherlink.com 1.10,2013-07-22 17:57:00,
2013-07-22 11:12:00,58.5,57.0,29.59,West,266,2.0,3.0,96,0.24,,,0.46,weatherlink.com 1.10,2013-07-22 18:12:00,
2013-07-22 11:27:00,58.5,57.0,29.59,WSW,256,3.0,4.0,96,0.17,,,0.46,weatherlink.com 1.10,2013-07-22 18:27:00,
2013-07-22 11:43:00,58.3,58.0,29.58,West,269,2.0,3.0,97,0.04,,,0.46,weatherlink.com 1.10,2013-07-22 18:43:00,
2013-07-22 11:57:00,58.7,58.0,29.58,WSW,251,2.0,3.0,97,0.05,,,0.50,weatherlink.com 1.10,2013-07-22 18:57:00,
2013-07-22 12:12:00,59.1,58.0,29.58,West,280,3.0,7.0,96,0.05,,,0.51,weatherlink.com 1.10,2013-07-22 19:12:00,
2013-07-22 12:27:00,59.3,59.0,29.58,West,264,2.0,6.0,97,0.05,,,0.51,weatherlink.com 1.10,2013-07-22 19:27:00,
2013-07-22 13:12:00,62.7,60.0,29.56,WNW,295,3.0,7.0,90,0.00,,,0.51,weatherlink.com 1.10,2013-07-22 20:12:00,
2013-07-22 13:27:00,62.7,60.0,29.56,NNW,341,2.0,7.0,91,0.00,,,0.51,weatherlink.com 1.10,2013-07-22 20:27:00,
2013-07-22 13:42:00,64.9,62.0,29.55,WNW,293,1.0,6.0,91,0.00,,,0.51,weatherlink.com 1.10,2013-07-22 20:42:00,
2013-07-22 13:58:00,63.8,60.0,29.55,West,281,1.0,5.0,87,0.00,,,0.00,weatherlink.com 1.10,2013-07-22 20:58:00,
2013-07-22 14:13:00,63.0,59.0,29.56,WNW,295,2.0,4.0,87,0.00,,,0.00,weatherlink.com 1.10,2013-07-22 21:13:00,
2013-07-22 14:28:00,63.1,59.0,29.56,West,276,0.0,3.0,86,0.00,,,0.00,weatherlink.com 1.10,2013-07-22 21:28:00,
2013-07-22 14:43:00,62.5,59.0,29.56,SW,231,3.0,4.0,87,0.00,,,0.00,weatherlink.com 1.10,2013-07-22 21:43:00,
2013-07-22 14:58:00,62.0,58.0,29.56,NNW,330,2.0,9.0,87,0.00,,,0.00,weatherlink.com 1.10,2013-07-22 21:58:00,
2013-07-22 15:13:00,61.6,59.0,29.55,WNW,297,4.0,12.0,91,0.00,,,0.00,weatherlink.com 1.10,2013-07-22 22:13:00,
2013-07-22 15:28:00,60.6,59.0,29.55,SW,229,6.0,9.0,95,0.00,,,0.00,weatherlink.com 1.10,2013-07-22 22:28:00,
2013-07-22 15:43:00,59.5,58.0,29.55,West,270,8.0,12.0,95,0.00,,,0.00,weatherlink.com 1.10,2013-07-22 22:43:00,
2013-07-22 15:58:00,61.6,60.0,29.54,WNW,294,9.0,12.0,93,0.00,,,0.00,weatherlink.com 1.10,2013-07-22 22:58:00,
2013-07-22 16:13:00,62.8,60.0,29.54,West,264,8.0,12.0,89,0.00,,,0.00,weatherlink.com 1.10,2013-07-22 23:13:00,
2013-07-22 16:28:00,63.3,60.0,29.54,NW,308,4.0,14.0,88,0.00,,,0.00,weatherlink.com 1.10,2013-07-22 23:28:00,
2013-07-22 16:43:00,63.0,59.0,29.54,WNW,292,4.0,9.0,88,0.00,,,0.00,weatherlink.com 1.10,2013-07-22 23:43:00,
2013-07-22 16:58:00,63.5,60.0,29.54,SW,229,3.0,11.0,89,0.00,,,0.00,weatherlink.com 1.10,2013-07-22 23:58:00,
2013-07-22 17:13:00,64.4,60.0,29.53,WNW,295,2.0,13.0,85,0.00,,,0.00,weatherlink.com 1.10,2013-07-23 00:13:00,
2013-07-22 17:28:00,64.2,59.0,29.54,West,273,7.0,11.0,82,0.00,,,0.00,weatherlink.com 1.10,2013-07-23 00:28:00,
2013-07-22 17:58:00,64.5,58.0,29.55,SSW,210,4.0,12.0,79,0.00,,,0.00,weatherlink.com 1.10,2013-07-23 00:58:00,
2013-07-22 18:13:00,63.7,57.0,29.55,West,281,7.0,13.0,80,0.00,,,0.00,weatherlink.com 1.10,2013-07-23 01:13:00,
2013-07-22 18:28:00,64.4,58.0,29.55,SW,218,3.0,11.0,81,0.00,,,0.00,weatherlink.com 1.10,2013-07-23 01:28:00,
2013-07-22 18:43:00,63.0,58.0,29.55,WNW,300,5.0,11.0,84,0.00,,,0.00,weatherlink.com 1.10,2013-07-23 01:43:00,
2013-07-22 18:58:00,61.7,58.0,29.55,SSW,208,7.0,10.0,87,0.00,,,0.00,weatherlink.com 1.10,2013-07-23 01:58:00,
2013-07-22 19:13:00,60.9,57.0,29.55,West,266,6.0,9.0,88,0.00,,,0.00,weatherlink.com 1.10,2013-07-23 02:13:00,
2013-07-22 19:28:00,59.8,57.0,29.55,SW,232,8.0,9.0,90,0.00,,,0.00,weatherlink.com 1.10,2013-07-23 02:28:00,
2013-07-22 19:43:00,59.2,56.0,29.55,West,277,3.0,9.0,89,0.00,,,0.00,weatherlink.com 1.10,2013-07-23 02:43:00,
2013-07-22 19:58:00,59.5,56.0,29.55,SW,224,1.0,6.0,87,0.00,,,0.00,weatherlink.com 1.10,2013-07-23 02:58:00,
2013-07-22 20:13:00,59.1,56.0,29.56,SW,235,3.0,4.0,88,0.00,,,0.00,weatherlink.com 1.10,2013-07-23 03:13:00,
2013-07-22 20:28:00,59.0,56.0,29.56,West,271,2.0,3.0,88,0.00,,,0.00,weatherlink.com 1.10,2013-07-23 03:28:00,
2013-07-22 20:43:00,58.7,55.0,29.57,WSW,239,4.0,4.0,88,0.00,,,0.00,weatherlink.com 1.10,2013-07-23 03:43:00,
2013-07-22 20:58:00,58.8,55.0,29.57,WSW,238,8.0,9.0,86,0.00,,,0.00,weatherlink.com 1.10,2013-07-23 03:58:00,
2013-07-22 21:13:00,59.9,54.0,29.57,WSW,239,11.0,11.0,82,0.00,,,0.00,weatherlink.com 1.10,2013-07-23 04:13:00,
2013-07-22 21:28:00,60.6,54.0,29.57,West,260,9.0,10.0,78,0.00,,,0.00,weatherlink.com 1.10,2013-07-23 04:28:00,
2013-07-22 21:43:00,60.5,54.0,29.58,WNW,288,9.0,13.0,79,0.00,,,0.00,weatherlink.com 1.10,2013-07-23 04:43:00,
2013-07-22 21:58:00,60.1,54.0,29.58,West,263,4.0,12.0,80,0.00,,,0.00,weatherlink.com 1.10,2013-07-23 04:58:00,
2013-07-22 22:13:00,61.0,53.0,29.59,SSW,212,5.0,8.0,76,0.00,,,0.00,weatherlink.com 1.10,2013-07-23 05:13:00,
2013-07-22 22:28:00,59.9,54.0,29.59,SW,229,2.0,6.0,81,0.00,,,0.00,weatherlink.com 1.10,2013-07-23 05:28:00,
2013-07-22 22:43:00,58.9,54.0,29.59,West,266,3.0,6.0,85,0.00,,,0.00,weatherlink.com 1.10,2013-07-23 05:43:00,
2013-07-22 22:58:00,58.6,55.0,29.60,SW,226,3.0,6.0,86,0.00,,,0.00,weatherlink.com 1.10,2013-07-23 05:58:00,
2013-07-22 23:14:00,58.3,55.0,29.60,SW,221,2.0,6.0,89,0.00,,,0.00,weatherlink.com 1.10,2013-07-23 06:14:00,
2013-07-22 23:29:00,58.2,55.0,29.61,SW,229,2.0,5.0,89,0.00,,,0.00,weatherlink.com 1.10,2013-07-23 06:29:00,
2013-07-22 23:44:00,58.5,55.0,29.60,West,267,3.0,8.0,89,0.00,,,0.00,weatherlink.com 1.10,2013-07-23 06:44:00,
2013-07-22 23:59:00,57.9,55.0,29.59,WSW,248,5.0,7.0,90,0.00,,,0.00,weatherlink.com 1.10,2013-07-23 06:59:00,